createdAt,value
2023-01-29T00:01:10.618Z,25.52
2023-01-29T00:03:40.022Z,26.90
2023-01-29T00:06:34.089Z,26.92
2023-01-29T00:09:15.772Z,32.17
2023-01-29T00:11:47.102Z,27.70
2023-01-29T00:14:15.848Z,27.58
2023-01-29T00:16:46.374Z,29.90
2023-01-29T00:19:18.629Z,32.45
2023-01-29T00:21:46.716Z,27.48
2023-01-29T00:24:15.680Z,27.10
2023-01-29T00:26:43.697Z,29.67
2023-01-29T00:29:14.052Z,29.65
2023-01-29T00:31:48.670Z,32.40
2023-01-29T00:34:18.603Z,27.45
2023-01-29T00:36:48.901Z,28.17
2023-01-29T00:39:17.160Z,44.15
2023-01-29T00:42:07.506Z,30.10
2023-01-29T00:44:55.646Z,27.70
2023-01-29T00:47:33.262Z,26.85
2023-01-29T00:50:05.234Z,29.85
2023-01-29T00:52:33.321Z,31.95
2023-01-29T00:55:02.437Z,27.98
2023-01-29T00:57:41.650Z,32.75
2023-01-29T01:00:19.530Z,32.22
2023-01-29T01:03:06.928Z,27.05
2023-01-29T01:05:37.270Z,26.88
2023-01-29T01:08:27.928Z,24.13
2023-01-29T01:11:06.203Z,29.65
2023-01-29T01:13:43.232Z,24.55
2023-01-29T01:16:16.539Z,27.15
2023-01-29T01:18:46.109Z,30.60
2023-01-29T01:21:14.642Z,27.95
2023-01-29T01:23:43.903Z,30.27
2023-01-29T01:26:20.531Z,32.08
2023-01-29T01:28:48.784Z,30.10
2023-01-29T01:31:18.890Z,29.50
2023-01-29T01:34:01.110Z,29.02
2023-01-29T01:36:32.418Z,28.73
2023-01-29T01:39:00.492Z,26.35
2023-01-29T01:41:37.792Z,27.83
2023-01-29T01:46:38.187Z,24.00
2023-01-29T01:49:26.353Z,26.45
2023-01-29T01:51:55.181Z,29.17
2023-01-29T01:54:30.385Z,26.65
2023-01-29T01:57:16.067Z,28.90
2023-01-29T02:00:16.730Z,29.92
2023-01-29T02:03:07.667Z,27.17
2023-01-29T02:05:55.845Z,30.00
2023-01-29T02:09:22.776Z,25.65
2023-01-29T02:14:25.650Z,25.30
2023-01-29T02:16:53.835Z,30.30
2023-01-29T02:19:58.300Z,29.15
2023-01-29T02:22:59.348Z,27.33
2023-01-29T02:25:30.839Z,25.65
2023-01-29T02:28:24.818Z,27.50
2023-01-29T02:31:19.717Z,24.00
2023-01-29T02:34:11.422Z,28.65
2023-01-29T02:36:48.237Z,22.60
2023-01-29T02:39:39.774Z,29.05
2023-01-29T02:42:37.282Z,26.00
2023-01-29T02:45:29.471Z,25.90
2023-01-29T02:48:01.221Z,23.90
2023-01-29T02:50:54.564Z,23.45
2023-01-29T02:53:40.978Z,27.13
2023-01-29T02:57:05.696Z,24.38
2023-01-29T02:59:44.231Z,23.17
2023-01-29T03:02:22.142Z,26.15
2023-01-29T03:05:01.014Z,26.35
2023-01-29T03:07:48.343Z,25.73
2023-01-29T03:10:46.709Z,26.20
2023-01-29T03:13:44.814Z,24.02
2023-01-29T03:16:44.374Z,27.90
2023-01-29T03:19:36.543Z,27.58
2023-01-29T03:22:12.478Z,23.35
2023-01-29T03:25:20.837Z,26.52
2023-01-29T03:28:15.731Z,25.60
2023-01-29T03:31:09.734Z,29.52
2023-01-29T03:33:58.532Z,25.25
2023-01-29T03:36:39.803Z,24.38
2023-01-29T03:39:09.648Z,27.60
2023-01-29T03:42:12.906Z,23.15
2023-01-29T03:45:05.473Z,28.83
2023-01-29T03:48:16.885Z,26.27
2023-01-29T03:51:21.693Z,25.10
2023-01-29T03:54:09.130Z,25.90
2023-01-29T03:56:57.803Z,26.50
2023-01-29T03:59:57.710Z,29.70
2023-01-29T04:02:58.982Z,29.10
2023-01-29T04:05:33.461Z,28.23
2023-01-29T04:08:25.960Z,26.48
2023-01-29T04:16:21.241Z,29.48
2023-01-29T04:19:09.673Z,28.77
2023-01-29T04:21:49.275Z,31.67
2023-01-29T04:24:18.293Z,25.77
2023-01-29T04:27:31.294Z,30.73
2023-01-29T04:30:35.842Z,30.00
2023-01-29T04:33:19.277Z,27.25
2023-01-29T04:36:01.223Z,24.88
2023-01-29T04:38:55.454Z,29.75
2023-01-29T04:41:57.122Z,30.38
2023-01-29T04:45:05.600Z,34.80
2023-01-29T04:47:39.203Z,29.48
2023-01-29T04:50:33.061Z,26.55
2023-01-29T04:53:26.145Z,32.42
2023-01-29T04:56:26.320Z,31.75
2023-01-29T04:59:45.834Z,30.70
2023-01-29T05:02:15.179Z,30.75
2023-01-29T05:04:46.954Z,34.10
2023-01-29T05:07:18.454Z,28.27
2023-01-29T05:09:51.710Z,32.97
2023-01-29T05:12:19.751Z,33.35
2023-01-29T05:14:49.802Z,32.83
2023-01-29T05:17:20.568Z,29.83
2023-01-29T05:19:52.074Z,32.65
2023-01-29T05:22:26.761Z,35.72
2023-01-29T05:25:04.790Z,33.35
2023-01-29T05:27:54.496Z,32.78
2023-01-29T05:30:22.800Z,32.22
2023-01-29T05:32:50.568Z,37.35
2023-01-29T05:35:18.402Z,37.63
2023-01-29T05:37:47.480Z,34.45
2023-01-29T05:40:17.068Z,37.20
2023-01-29T05:42:46.331Z,31.00
2023-01-29T05:45:14.255Z,38.83
2023-01-29T05:47:50.319Z,38.85
2023-01-29T05:50:19.514Z,31.52
2023-01-29T05:52:58.292Z,37.17
2023-01-29T05:55:27.046Z,36.42
2023-01-29T05:57:57.164Z,34.65
2023-01-29T06:00:25.750Z,33.28
2023-01-29T06:02:54.270Z,38.60
2023-01-29T06:05:25.896Z,35.95
2023-01-29T06:07:58.050Z,30.45
2023-01-29T06:10:25.657Z,33.38
2023-01-29T06:12:55.060Z,34.42
2023-01-29T06:15:26.859Z,34.35
2023-01-29T06:18:07.147Z,33.70
2023-01-29T06:20:35.003Z,35.83
2023-01-29T06:23:04.882Z,40.75
2023-01-29T06:25:34.972Z,37.35
2023-01-29T06:28:13.218Z,39.00
2023-01-29T06:30:45.954Z,40.42
2023-01-29T06:33:18.480Z,40.10
2023-01-29T06:35:55.527Z,35.90
2023-01-29T06:38:29.579Z,34.47
2023-01-29T06:40:59.114Z,34.25
2023-01-29T06:43:42.852Z,32.85
2023-01-29T06:46:13.246Z,37.22
2023-01-29T06:48:47.114Z,40.58
2023-01-29T06:51:17.242Z,36.70
2023-01-29T06:53:47.176Z,38.22
2023-01-29T06:56:18.220Z,35.80
2023-01-29T06:58:52.187Z,41.83
2023-01-29T07:01:36.154Z,40.85
2023-01-29T07:04:04.684Z,36.75
2023-01-29T07:06:40.397Z,42.17
2023-01-29T07:09:11.710Z,38.25
2023-01-29T07:11:39.831Z,37.90
2023-01-29T07:14:10.474Z,38.88
2023-01-29T07:16:39.210Z,35.22
2023-01-29T07:19:18.696Z,38.15
2023-01-29T07:21:46.455Z,39.25
2023-01-29T07:24:14.890Z,39.75
2023-01-29T07:26:44.844Z,40.40
2023-01-29T07:29:15.334Z,37.50
2023-01-29T07:31:45.337Z,39.88
2023-01-29T07:34:14.284Z,33.55
2023-01-29T07:36:42.493Z,35.83
2023-01-29T07:39:11.886Z,33.65
2023-01-29T07:41:40.143Z,35.28
2023-01-29T07:44:21.527Z,32.75
2023-01-29T07:46:58.949Z,37.17
2023-01-29T07:49:29.440Z,36.88
2023-01-29T07:52:04.777Z,37.33
2023-01-29T07:54:36.510Z,37.00
2023-01-29T07:57:05.229Z,39.38
2023-01-29T07:59:32.930Z,40.70
2023-01-29T08:02:01.018Z,37.05
2023-01-29T08:04:32.396Z,41.00
2023-01-29T08:07:01.774Z,35.65
2023-01-29T08:09:33.019Z,40.65
2023-01-29T08:12:07.325Z,42.63
2023-01-29T08:14:37.289Z,38.80
2023-01-29T08:17:08.613Z,39.53
2023-01-29T08:19:46.001Z,35.83
2023-01-29T08:22:17.099Z,39.20
2023-01-29T08:24:53.743Z,39.13
2023-01-29T08:27:30.969Z,37.03
2023-01-29T08:29:59.679Z,40.92
2023-01-29T08:32:36.530Z,35.22
2023-01-29T08:35:04.678Z,41.40
2023-01-29T08:37:35.643Z,37.53
2023-01-29T08:40:04.965Z,39.97
2023-01-29T08:42:34.367Z,34.75
2023-01-29T08:45:02.419Z,38.67
2023-01-29T08:47:31.056Z,37.00
2023-01-29T08:49:58.824Z,36.97
2023-01-29T08:52:35.828Z,36.03
2023-01-29T08:55:08.433Z,33.67
2023-01-29T08:57:42.599Z,35.58
2023-01-29T09:00:12.667Z,37.13
2023-01-29T09:02:43.173Z,33.65
2023-01-29T09:05:14.688Z,35.03
2023-01-29T09:07:42.589Z,33.00
2023-01-29T09:10:14.668Z,32.00
2023-01-29T09:12:44.169Z,37.85
2023-01-29T09:15:15.464Z,30.17
2023-01-29T09:17:45.937Z,34.17
2023-01-29T09:20:13.863Z,29.85
2023-01-29T09:23:05.352Z,37.35
2023-01-29T09:28:54.709Z,36.53
2023-01-29T09:31:32.255Z,37.80
2023-01-29T09:34:11.040Z,33.42
2023-01-29T09:36:38.795Z,28.88
2023-01-29T09:39:07.990Z,33.58
2023-01-29T09:42:27.122Z,31.75
2023-01-29T09:45:06.180Z,33.47
2023-01-29T09:47:43.442Z,31.55
2023-01-29T09:50:24.697Z,33.53
2023-01-29T09:53:30.328Z,28.92
2023-01-29T09:56:09.812Z,30.23
2023-01-29T09:58:45.299Z,31.35
2023-01-29T10:02:00.782Z,30.63
2023-01-29T10:04:48.209Z,30.25
2023-01-29T10:07:50.377Z,27.38
2023-01-29T10:10:44.378Z,29.55
2023-01-29T10:17:38.121Z,27.40
2023-01-29T10:21:15.756Z,27.02
2023-01-29T10:24:18.061Z,26.67
2023-01-29T10:26:58.769Z,24.70
2023-01-29T10:29:37.371Z,27.42
2023-01-29T10:32:18.091Z,29.65
2023-01-29T10:35:02.918Z,24.38
2023-01-29T10:37:44.302Z,28.02
2023-01-29T10:40:41.733Z,26.38
2023-01-29T10:47:06.812Z,25.25
2023-01-29T10:50:28.771Z,24.35
2023-01-29T10:53:26.241Z,24.13
2023-01-29T10:56:39.578Z,25.13
2023-01-29T10:59:49.624Z,23.88
2023-01-29T11:02:21.883Z,26.67
2023-01-29T11:05:34.579Z,23.13
2023-01-29T11:08:24.451Z,23.98
2023-01-29T11:11:04.188Z,27.30
2023-01-29T11:14:04.343Z,22.75
2023-01-29T11:16:41.004Z,24.67
2023-01-29T11:19:37.102Z,26.55
2023-01-29T11:22:35.527Z,26.13
2023-01-29T11:25:21.166Z,24.20
2023-01-29T11:28:16.963Z,30.98
2023-01-29T11:31:18.898Z,23.75
2023-01-29T11:34:22.497Z,24.38
2023-01-29T11:37:18.220Z,26.42
2023-01-29T11:42:43.263Z,22.17
2023-01-29T11:48:03.451Z,20.48
2023-01-29T11:50:37.323Z,26.40
2023-01-29T11:53:26.244Z,24.80
2023-01-29T11:56:05.321Z,27.77
2023-01-29T11:58:36.813Z,24.00
2023-01-29T12:03:56.287Z,24.80
2023-01-29T12:06:41.130Z,21.80
2023-01-29T12:12:52.000Z,23.65
2023-01-29T12:15:25.479Z,23.88
2023-01-29T12:18:13.207Z,24.35
2023-01-29T12:21:13.677Z,22.20
2023-01-29T12:24:10.820Z,23.65
2023-01-29T12:26:56.915Z,28.35
2023-01-29T12:29:39.899Z,25.30
2023-01-29T12:32:15.175Z,24.60
2023-01-29T12:38:47.196Z,23.58
2023-01-29T12:41:45.929Z,23.58
2023-01-29T12:44:29.925Z,24.25
2023-01-29T12:47:03.443Z,25.25
2023-01-29T12:49:43.156Z,26.80
2023-01-29T12:53:07.153Z,21.73
2023-01-29T12:56:03.480Z,22.95
2023-01-29T12:58:52.108Z,24.73
2023-01-29T13:01:37.556Z,24.60
2023-01-29T13:04:46.480Z,27.15
2023-01-29T13:11:21.156Z,28.83
2023-01-29T13:14:11.213Z,25.45
2023-01-29T13:16:55.189Z,25.67
2023-01-29T13:19:44.501Z,29.35
2023-01-29T13:26:02.459Z,30.75
2023-01-29T13:28:35.475Z,28.60
2023-01-29T13:31:35.877Z,33.35
2023-01-29T13:34:24.478Z,27.63
2023-01-29T13:37:20.576Z,28.73
2023-01-29T13:40:04.491Z,32.17
2023-01-29T13:42:53.400Z,33.03
2023-01-29T13:49:02.340Z,34.85
2023-01-29T13:52:26.569Z,33.47
2023-01-29T13:55:43.396Z,34.75
2023-01-29T13:58:44.411Z,37.35
2023-01-29T14:04:41.206Z,33.30
2023-01-29T14:07:47.917Z,33.05
2023-01-29T14:10:41.937Z,35.50
2023-01-29T14:13:27.704Z,33.08
2023-01-29T14:16:06.972Z,32.22
2023-01-29T14:21:31.183Z,32.28
2023-01-29T14:24:50.318Z,28.70
2023-01-29T14:27:28.313Z,32.75
2023-01-29T14:30:13.120Z,32.15
2023-01-29T14:33:08.443Z,33.40
2023-01-29T14:38:29.845Z,33.40
2023-01-29T14:45:21.535Z,34.90
2023-01-29T14:47:56.044Z,33.70
2023-01-29T14:50:35.294Z,30.48
2023-01-29T14:53:26.952Z,36.60
2023-01-29T14:56:12.656Z,33.78
2023-01-29T14:59:35.250Z,29.98
2023-01-29T15:02:44.030Z,34.00
2023-01-29T15:05:42.711Z,32.33
2023-01-29T15:12:45.940Z,31.77
2023-01-29T15:19:49.698Z,32.30
2023-01-29T15:30:09.711Z,32.25
2023-01-29T15:32:54.931Z,31.88
2023-01-29T15:39:07.359Z,33.47
2023-01-29T15:41:36.859Z,28.27
2023-01-29T15:44:22.816Z,38.47
2023-01-29T15:47:03.128Z,32.85
2023-01-29T15:49:40.018Z,28.95
2023-01-29T15:52:26.940Z,31.20
2023-01-29T15:55:07.760Z,31.63
2023-01-29T15:57:48.247Z,26.23
2023-01-29T16:03:39.297Z,28.85
2023-01-29T16:12:49.281Z,30.30
2023-01-29T16:15:53.811Z,29.92
2023-01-29T16:23:07.698Z,32.00
2023-01-29T16:25:43.789Z,26.77
2023-01-29T16:28:20.213Z,31.30
2023-01-29T16:34:48.692Z,27.15
2023-01-29T16:37:26.074Z,28.98
2023-01-29T16:43:48.071Z,26.83
2023-01-29T16:46:53.163Z,25.98
2023-01-29T16:49:39.546Z,28.55
2023-01-29T16:52:46.352Z,25.50
2023-01-29T16:55:30.688Z,26.98
2023-01-29T16:58:14.379Z,24.35
2023-01-29T17:01:22.802Z,28.55
2023-01-29T17:04:23.595Z,25.30
2023-01-29T17:13:40.072Z,31.30
2023-01-29T17:16:30.273Z,22.98
2023-01-29T17:19:01.958Z,28.27
2023-01-29T17:21:32.525Z,30.55
2023-01-29T17:24:05.504Z,28.17
2023-01-29T17:30:19.836Z,29.23
2023-01-29T17:33:29.784Z,25.90
2023-01-29T17:36:11.607Z,22.95
2023-01-29T17:39:01.891Z,29.38
2023-01-29T17:41:35.197Z,36.15
2023-01-29T17:44:09.720Z,33.65
2023-01-29T17:46:40.242Z,26.77
2023-01-29T17:49:22.450Z,27.00
2023-01-29T17:58:25.542Z,26.33
2023-01-29T18:01:04.918Z,28.83
2023-01-29T18:03:39.671Z,33.67
2023-01-29T18:09:04.234Z,27.75
2023-01-29T18:11:42.466Z,28.85
2023-01-29T18:14:18.977Z,26.40
2023-01-29T18:16:48.141Z,27.77
2023-01-29T18:19:34.664Z,23.25
2023-01-29T18:22:04.374Z,30.13
2023-01-29T18:24:34.714Z,24.08
2023-01-29T18:27:14.563Z,29.52
2023-01-29T18:32:43.125Z,25.23
2023-01-29T18:35:18.329Z,28.17
2023-01-29T18:37:49.669Z,28.30
2023-01-29T18:40:19.874Z,27.05
2023-01-29T18:46:07.718Z,28.25
2023-01-29T18:48:44.891Z,27.38
2023-01-29T18:51:14.627Z,26.85
2023-01-29T18:54:16.241Z,27.85
2023-01-29T18:57:13.071Z,28.27
2023-01-29T19:02:23.548Z,27.95
2023-01-29T19:04:57.728Z,26.40
2023-01-29T19:10:20.976Z,30.40
2023-01-29T19:16:15.213Z,29.55
2023-01-29T19:18:44.137Z,30.70
2023-01-29T19:21:18.186Z,30.80
2023-01-29T19:24:01.908Z,28.27
2023-01-29T19:26:56.240Z,28.60
2023-01-29T19:29:24.772Z,31.70
2023-01-29T19:31:54.942Z,29.95
2023-01-29T19:34:26.883Z,30.98
2023-01-29T19:37:05.112Z,33.25
2023-01-29T19:39:35.853Z,36.38
2023-01-29T19:44:58.755Z,28.05
2023-01-29T19:47:49.046Z,25.60
2023-01-29T19:50:52.048Z,34.47
2023-01-29T19:53:20.799Z,32.50
2023-01-29T19:56:05.464Z,35.22
2023-01-29T19:58:41.776Z,31.75
2023-01-29T20:01:33.540Z,28.73
2023-01-29T20:04:02.249Z,33.63
2023-01-29T20:06:37.180Z,36.35
2023-01-29T20:09:08.725Z,31.10
2023-01-29T20:11:53.860Z,35.40
2023-01-29T20:14:22.782Z,33.65
2023-01-29T20:16:52.475Z,34.17
2023-01-29T20:19:24.807Z,36.45
2023-01-29T20:21:54.122Z,31.23
2023-01-29T20:27:17.667Z,33.78
2023-01-29T20:29:53.594Z,34.47
2023-01-29T20:32:48.767Z,35.00
2023-01-29T20:35:16.429Z,36.33
2023-01-29T20:37:44.258Z,34.88
2023-01-29T20:42:55.037Z,31.40
2023-01-29T20:48:48.821Z,32.35
2023-01-29T20:51:20.737Z,35.15
2023-01-29T20:54:18.215Z,36.33
2023-01-29T20:56:47.756Z,32.95
2023-01-29T20:59:22.303Z,37.85
2023-01-29T21:02:00.011Z,35.60
2023-01-29T21:04:35.392Z,39.88
2023-01-29T21:07:03.240Z,40.35
2023-01-29T21:09:32.227Z,38.65
2023-01-29T21:14:52.170Z,37.28
2023-01-29T21:17:29.691Z,34.88
2023-01-29T21:20:00.714Z,38.55
2023-01-29T21:22:29.019Z,37.30
2023-01-29T21:25:00.325Z,38.28
2023-01-29T21:27:41.440Z,36.92
2023-01-29T21:30:11.567Z,32.88
2023-01-29T21:32:42.998Z,39.17
2023-01-29T21:35:12.671Z,38.40
2023-01-29T21:37:49.895Z,33.25
2023-01-29T21:43:07.831Z,36.80
2023-01-29T21:45:37.547Z,39.13
2023-01-29T21:48:25.227Z,35.05
2023-01-29T21:50:54.572Z,32.58
2023-01-29T21:53:22.871Z,34.58
2023-01-29T21:56:09.832Z,33.33
2023-01-29T21:58:49.894Z,33.00
2023-01-29T22:01:36.270Z,31.55
2023-01-29T22:04:10.333Z,37.03
2023-01-29T22:06:40.008Z,31.65
2023-01-29T22:09:13.718Z,35.75
2023-01-29T22:11:53.979Z,37.80
2023-01-29T22:14:24.770Z,37.60
2023-01-29T22:16:54.450Z,39.45
2023-01-29T22:22:28.400Z,36.97
2023-01-29T22:25:02.109Z,38.22
2023-01-29T22:27:36.806Z,37.78
2023-01-29T22:30:10.234Z,35.95
2023-01-29T22:35:48.777Z,36.70
2023-01-29T22:41:04.858Z,38.35
2023-01-29T22:43:43.606Z,38.90
2023-01-29T22:46:13.188Z,41.38
2023-01-29T22:48:43.373Z,40.17
2023-01-29T22:51:19.129Z,39.72
2023-01-29T22:53:59.832Z,40.38
2023-01-29T22:56:41.475Z,37.05
2023-01-29T22:59:14.752Z,39.97
2023-01-29T23:01:44.368Z,37.42
2023-01-29T23:04:30.667Z,39.47
2023-01-29T23:07:01.814Z,44.38
2023-01-29T23:09:31.640Z,41.70
2023-01-29T23:12:01.844Z,40.58
2023-01-29T23:14:31.705Z,38.88
2023-01-29T23:17:04.520Z,41.47
2023-01-29T23:19:40.100Z,41.20
2023-01-29T23:22:09.619Z,46.92
2023-01-29T23:24:39.613Z,40.50
2023-01-29T23:27:31.417Z,41.50
2023-01-29T23:30:03.520Z,43.20
2023-01-29T23:32:32.968Z,39.75
2023-01-29T23:35:02.796Z,44.40
2023-01-29T23:37:35.737Z,47.72
2023-01-29T23:40:10.963Z,45.60
2023-01-29T23:42:45.490Z,41.63
2023-01-29T23:45:14.259Z,45.53
2023-01-29T23:47:42.895Z,42.13
2023-01-29T23:50:11.412Z,47.58
2023-01-29T23:52:40.130Z,47.10
2023-01-29T23:55:09.506Z,40.50
2023-01-29T23:57:40.624Z,48.97
